sensor_id;sensor_type;location;lat;lon;timestamp;pressure;altitude;pressure_sealevel;temperature;humidity
20115;BME280;10218;42.874;25.320;2023-03-16T00:01:44;96126.38;;;9.68;70.67
20115;BME280;10218;42.874;25.320;2023-03-16T00:04:11;96137.37;;;9.79;70.53
20115;BME280;10218;42.874;25.320;2023-03-16T00:06:38;96133.62;;;10.02;67.69
20115;BME280;10218;42.874;25.320;2023-03-16T00:09:05;96129.37;;;9.79;69.46
20115;BME280;10218;42.874;25.320;2023-03-16T00:11:33;96125.12;;;9.64;70.33
20115;BME280;10218;42.874;25.320;2023-03-16T00:14:00;96125.94;;;9.22;75.52
20115;BME280;10218;42.874;25.320;2023-03-16T00:16:30;96122.63;;;9.20;76.23
20115;BME280;10218;42.874;25.320;2023-03-16T00:18:57;96129.63;;;9.63;73.84
20115;BME280;10218;42.874;25.320;2023-03-16T00:21:24;96129.75;;;9.34;77.40
20115;BME280;10218;42.874;25.320;2023-03-16T00:23:51;96127.34;;;9.60;73.75
20115;BME280;10218;42.874;25.320;2023-03-16T00:26:19;96134.81;;;9.71;74.67
20115;BME280;10218;42.874;25.320;2023-03-16T00:28:46;96132.78;;;9.95;74.83
20115;BME280;10218;42.874;25.320;2023-03-16T00:31:13;96132.28;;;9.84;75.31
20115;BME280;10218;42.874;25.320;2023-03-16T00:33:41;96133.47;;;9.54;76.32
20115;BME280;10218;42.874;25.320;2023-03-16T00:36:11;96136.22;;;9.46;81.51
20115;BME280;10218;42.874;25.320;2023-03-16T00:38:40;96130.06;;;9.67;78.07
20115;BME280;10218;42.874;25.320;2023-03-16T00:41:13;96140.88;;;9.59;79.75
20115;BME280;10218;42.874;25.320;2023-03-16T00:43:41;96141.06;;;9.78;78.96
20115;BME280;10218;42.874;25.320;2023-03-16T00:46:13;96151.53;;;9.80;79.08
20115;BME280;10218;42.874;25.320;2023-03-16T00:48:44;96143.59;;;9.23;86.77
20115;BME280;10218;42.874;25.320;2023-03-16T00:51:14;96153.13;;;9.53;86.37
20115;BME280;10218;42.874;25.320;2023-03-16T00:53:43;96144.97;;;9.40;89.65
20115;BME280;10218;42.874;25.320;2023-03-16T00:56:11;96148.72;;;9.24;91.59
20115;BME280;10218;42.874;25.320;2023-03-16T00:58:40;96156.72;;;9.24;92.13
20115;BME280;10218;42.874;25.320;2023-03-16T01:01:13;96162.84;;;9.04;93.87
20115;BME280;10218;42.874;25.320;2023-03-16T01:03:40;96161.88;;;9.47;91.48
20115;BME280;10218;42.874;25.320;2023-03-16T01:06:10;96158.41;;;9.11;94.44
20115;BME280;10218;42.874;25.320;2023-03-16T01:08:38;96164.19;;;9.14;94.97
20115;BME280;10218;42.874;25.320;2023-03-16T01:11:09;96156.47;;;9.40;93.46
20115;BME280;10218;42.874;25.320;2023-03-16T01:13:37;96166.03;;;8.99;96.00
20115;BME280;10218;42.874;25.320;2023-03-16T01:16:07;96159.75;;;9.21;94.18
20115;BME280;10218;42.874;25.320;2023-03-16T01:18:35;96163.19;;;9.36;93.36
20115;BME280;10218;42.874;25.320;2023-03-16T01:21:04;96151.44;;;8.95;94.58
20115;BME280;10218;42.874;25.320;2023-03-16T01:23:32;96178.00;;;9.39;91.96
20115;BME280;10218;42.874;25.320;2023-03-16T01:25:59;96179.28;;;8.92;98.15
20115;BME280;10218;42.874;25.320;2023-03-16T01:28:29;96184.44;;;8.79;97.95
20115;BME280;10218;42.874;25.320;2023-03-16T01:31:04;96184.38;;;9.23;94.33
20115;BME280;10218;42.874;25.320;2023-03-16T01:33:33;96179.56;;;9.33;94.63
20115;BME280;10218;42.874;25.320;2023-03-16T01:36:13;96185.47;;;9.29;92.92
20115;BME280;10218;42.874;25.320;2023-03-16T01:38:41;96194.22;;;9.23;94.14
20115;BME280;10218;42.874;25.320;2023-03-16T01:41:09;96186.31;;;9.15;97.75
20115;BME280;10218;42.874;25.320;2023-03-16T01:43:38;96182.31;;;8.89;100.00
20115;BME280;10218;42.874;25.320;2023-03-16T01:48:40;96187.56;;;8.68;100.00
20115;BME280;10218;42.874;25.320;2023-03-16T01:51:14;96185.94;;;9.18;100.00
20115;BME280;10218;42.874;25.320;2023-03-16T01:53:44;96200.16;;;9.39;100.00
20115;BME280;10218;42.874;25.320;2023-03-16T01:56:15;96202.53;;;8.98;100.00
20115;BME280;10218;42.874;25.320;2023-03-16T01:58:45;96207.78;;;8.77;100.00
20115;BME280;10218;42.874;25.320;2023-03-16T02:01:12;96205.66;;;8.87;100.00
20115;BME280;10218;42.874;25.320;2023-03-16T02:03:41;96210.16;;;8.87;100.00
20115;BME280;10218;42.874;25.320;2023-03-16T02:06:20;96206.81;;;8.99;100.00
20115;BME280;10218;42.874;25.320;2023-03-16T02:08:50;96198.41;;;9.32;100.00
20115;BME280;10218;42.874;25.320;2023-03-16T02:11:22;96199.75;;;9.07;100.00
20115;BME280;10218;42.874;25.320;2023-03-16T02:13:51;96211.31;;;9.14;100.00
20115;BME280;10218;42.874;25.320;2023-03-16T02:16:19;96221.13;;;9.28;100.00
20115;BME280;10218;42.874;25.320;2023-03-16T02:18:49;96223.91;;;9.05;100.00
20115;BME280;10218;42.874;25.320;2023-03-16T02:21:27;96224.75;;;8.76;100.00
20115;BME280;10218;42.874;25.320;2023-03-16T02:24:00;96212.59;;;8.30;100.00
20115;BME280;10218;42.874;25.320;2023-03-16T02:26:34;96209.22;;;8.80;100.00
20115;BME280;10218;42.874;25.320;2023-03-16T02:29:22;96209.75;;;9.05;100.00
20115;BME280;10218;42.874;25.320;2023-03-16T02:31:55;96209.25;;;9.30;100.00
20115;BME280;10218;42.874;25.320;2023-03-16T02:34:24;96214.53;;;9.24;100.00
20115;BME280;10218;42.874;25.320;2023-03-16T02:36:52;96230.78;;;9.29;100.00
20115;BME280;10218;42.874;25.320;2023-03-16T02:39:21;96232.62;;;8.84;100.00
20115;BME280;10218;42.874;25.320;2023-03-16T02:41:48;96235.75;;;8.58;100.00
20115;BME280;10218;42.874;25.320;2023-03-16T02:44:22;96234.56;;;9.05;100.00
20115;BME280;10218;42.874;25.320;2023-03-16T02:46:54;96241.91;;;8.74;100.00
20115;BME280;10218;42.874;25.320;2023-03-16T02:49:26;96246.44;;;9.02;100.00
20115;BME280;10218;42.874;25.320;2023-03-16T02:51:56;96222.63;;;9.01;100.00
20115;BME280;10218;42.874;25.320;2023-03-16T02:54:23;96255.16;;;8.30;100.00
20115;BME280;10218;42.874;25.320;2023-03-16T02:56:50;96256.72;;;8.76;100.00
20115;BME280;10218;42.874;25.320;2023-03-16T02:59:18;96259.53;;;8.60;100.00
20115;BME280;10218;42.874;25.320;2023-03-16T03:01:45;96268.91;;;8.71;100.00
20115;BME280;10218;42.874;25.320;2023-03-16T03:04:12;96270.47;;;8.05;100.00
20115;BME280;10218;42.874;25.320;2023-03-16T03:06:40;96280.09;;;8.29;100.00
20115;BME280;10218;42.874;25.320;2023-03-16T03:09:08;96276.34;;;8.75;100.00
20115;BME280;10218;42.874;25.320;2023-03-16T03:11:37;96284.00;;;8.18;100.00
20115;BME280;10218;42.874;25.320;2023-03-16T03:14:05;96277.59;;;8.50;100.00
20115;BME280;10218;42.874;25.320;2023-03-16T03:16:32;96266.25;;;8.33;100.00
20115;BME280;10218;42.874;25.320;2023-03-16T03:18:59;96283.81;;;8.20;100.00
20115;BME280;10218;42.874;25.320;2023-03-16T03:21:27;96282.22;;;8.56;100.00
20115;BME280;10218;42.874;25.320;2023-03-16T03:23:54;96286.38;;;7.90;100.00
20115;BME280;10218;42.874;25.320;2023-03-16T03:26:21;96299.06;;;8.03;100.00
20115;BME280;10218;42.874;25.320;2023-03-16T03:28:50;96294.25;;;8.06;100.00
20115;BME280;10218;42.874;25.320;2023-03-16T03:31:20;96300.25;;;7.47;100.00
20115;BME280;10218;42.874;25.320;2023-03-16T03:33:49;96300.47;;;7.37;100.00
20115;BME280;10218;42.874;25.320;2023-03-16T03:36:17;96304.94;;;7.67;100.00
20115;BME280;10218;42.874;25.320;2023-03-16T03:38:44;96312.34;;;7.18;100.00
20115;BME280;10218;42.874;25.320;2023-03-16T03:41:11;96306.41;;;8.01;100.00
20115;BME280;10218;42.874;25.320;2023-03-16T03:43:39;96300.62;;;8.20;100.00
20115;BME280;10218;42.874;25.320;2023-03-16T03:46:07;96306.84;;;8.12;100.00
20115;BME280;10218;42.874;25.320;2023-03-16T03:48:34;96310.25;;;8.21;100.00
20115;BME280;10218;42.874;25.320;2023-03-16T03:51:01;96315.56;;;7.76;100.00
20115;BME280;10218;42.874;25.320;2023-03-16T03:53:30;96315.38;;;8.31;100.00
20115;BME280;10218;42.874;25.320;2023-03-16T03:55:58;96321.13;;;8.11;100.00
20115;BME280;10218;42.874;25.320;2023-03-16T03:58:25;96326.87;;;8.46;100.00
20115;BME280;10218;42.874;25.320;2023-03-16T04:00:52;96334.06;;;8.14;100.00
20115;BME280;10218;42.874;25.320;2023-03-16T04:03:20;96336.69;;;8.45;100.00
20115;BME280;10218;42.874;25.320;2023-03-16T04:05:47;96339.16;;;8.32;100.00
20115;BME280;10218;42.874;25.320;2023-03-16T04:08:14;96342.72;;;8.39;100.00
20115;BME280;10218;42.874;25.320;2023-03-16T04:10:41;96355.66;;;7.97;100.00
20115;BME280;10218;42.874;25.320;2023-03-16T04:13:09;96351.78;;;7.77;100.00
20115;BME280;10218;42.874;25.320;2023-03-16T04:15:36;96361.00;;;7.89;100.00
20115;BME280;10218;42.874;25.320;2023-03-16T04:18:05;96364.16;;;7.53;100.00
20115;BME280;10218;42.874;25.320;2023-03-16T04:20:32;96365.06;;;8.07;100.00
20115;BME280;10218;42.874;25.320;2023-03-16T04:22:59;96360.84;;;7.90;100.00
20115;BME280;10218;42.874;25.320;2023-03-16T04:25:27;96362.66;;;7.59;100.00
20115;BME280;10218;42.874;25.320;2023-03-16T04:27:56;96353.06;;;7.50;100.00
20115;BME280;10218;42.874;25.320;2023-03-16T04:30:24;96356.94;;;8.01;100.00
20115;BME280;10218;42.874;25.320;2023-03-16T04:32:52;96356.56;;;7.81;100.00
20115;BME280;10218;42.874;25.320;2023-03-16T04:35:19;96365.53;;;7.49;100.00
20115;BME280;10218;42.874;25.320;2023-03-16T04:37:46;96369.38;;;7.39;100.00
20115;BME280;10218;42.874;25.320;2023-03-16T04:40:14;96367.91;;;7.67;100.00
20115;BME280;10218;42.874;25.320;2023-03-16T04:42:43;96370.19;;;7.78;100.00
20115;BME280;10218;42.874;25.320;2023-03-16T04:45:12;96366.78;;;7.22;100.00
20115;BME280;10218;42.874;25.320;2023-03-16T04:47:41;96379.56;;;7.66;100.00
20115;BME280;10218;42.874;25.320;2023-03-16T04:50:09;96376.25;;;7.95;100.00
20115;BME280;10218;42.874;25.320;2023-03-16T04:52:38;96381.41;;;7.57;100.00
20115;BME280;10218;42.874;25.320;2023-03-16T04:55:06;96377.94;;;7.88;100.00
20115;BME280;10218;42.874;25.320;2023-03-16T04:57:34;96376.56;;;7.22;100.00
20115;BME280;10218;42.874;25.320;2023-03-16T05:00:03;96386.66;;;7.73;100.00
20115;BME280;10218;42.874;25.320;2023-03-16T05:02:49;96386.94;;;7.48;100.00
20115;BME280;10218;42.874;25.320;2023-03-16T05:05:18;96382.41;;;7.64;100.00
20115;BME280;10218;42.874;25.320;2023-03-16T05:07:45;96369.66;;;7.83;100.00
20115;BME280;10218;42.874;25.320;2023-03-16T05:10:15;96378.53;;;7.28;100.00
20115;BME280;10218;42.874;25.320;2023-03-16T05:12:42;96385.69;;;7.27;100.00
20115;BME280;10218;42.874;25.320;2023-03-16T05:15:10;96393.66;;;7.27;100.00
20115;BME280;10218;42.874;25.320;2023-03-16T05:17:38;96406.53;;;7.47;100.00
20115;BME280;10218;42.874;25.320;2023-03-16T05:20:10;96400.59;;;7.37;100.00
20115;BME280;10218;42.874;25.320;2023-03-16T05:22:44;96411.97;;;6.82;100.00
20115;BME280;10218;42.874;25.320;2023-03-16T05:25:12;96417.72;;;7.34;100.00
20115;BME280;10218;42.874;25.320;2023-03-16T05:27:45;96422.75;;;7.21;100.00
20115;BME280;10218;42.874;25.320;2023-03-16T05:30:16;96416.28;;;6.91;100.00
20115;BME280;10218;42.874;25.320;2023-03-16T05:32:45;96428.56;;;7.08;100.00
20115;BME280;10218;42.874;25.320;2023-03-16T05:35:13;96426.25;;;6.89;100.00
20115;BME280;10218;42.874;25.320;2023-03-16T05:37:41;96440.19;;;7.07;100.00
20115;BME280;10218;42.874;25.320;2023-03-16T05:40:12;96435.22;;;6.80;100.00
20115;BME280;10218;42.874;25.320;2023-03-16T05:42:45;96453.78;;;7.20;100.00
20115;BME280;10218;42.874;25.320;2023-03-16T05:45:15;96460.06;;;7.36;100.00
20115;BME280;10218;42.874;25.320;2023-03-16T05:47:42;96462.03;;;7.42;100.00
20115;BME280;10218;42.874;25.320;2023-03-16T05:50:12;96469.06;;;6.78;100.00
20115;BME280;10218;42.874;25.320;2023-03-16T05:52:40;96475.03;;;6.88;100.00
20115;BME280;10218;42.874;25.320;2023-03-16T05:55:08;96483.69;;;6.90;100.00
20115;BME280;10218;42.874;25.320;2023-03-16T05:57:36;96487.66;;;7.02;100.00
20115;BME280;10218;42.874;25.320;2023-03-16T06:00:05;96490.81;;;6.98;100.00
20115;BME280;10218;42.874;25.320;2023-03-16T06:02:43;96489.81;;;7.07;100.00
20115;BME280;10218;42.874;25.320;2023-03-16T06:05:10;96497.09;;;6.72;100.00
20115;BME280;10218;42.874;25.320;2023-03-16T06:07:38;96483.12;;;6.38;100.00
20115;BME280;10218;42.874;25.320;2023-03-16T06:10:06;96490.28;;;6.62;100.00
20115;BME280;10218;42.874;25.320;2023-03-16T06:12:34;96503.75;;;6.60;100.00
20115;BME280;10218;42.874;25.320;2023-03-16T06:15:02;96496.88;;;6.41;100.00
20115;BME280;10218;42.874;25.320;2023-03-16T06:17:29;96486.94;;;6.43;100.00
20115;BME280;10218;42.874;25.320;2023-03-16T06:19:56;96494.59;;;6.63;100.00
20115;BME280;10218;42.874;25.320;2023-03-16T06:22:24;96509.50;;;6.39;100.00
20115;BME280;10218;42.874;25.320;2023-03-16T06:24:51;96504.19;;;6.39;100.00
20115;BME280;10218;42.874;25.320;2023-03-16T06:27:19;96523.13;;;6.53;100.00
20115;BME280;10218;42.874;25.320;2023-03-16T06:29:47;96529.59;;;6.50;100.00
20115;BME280;10218;42.874;25.320;2023-03-16T06:32:15;96526.25;;;6.56;100.00
20115;BME280;10218;42.874;25.320;2023-03-16T06:34:42;96535.53;;;6.44;100.00
20115;BME280;10218;42.874;25.320;2023-03-16T06:37:10;96544.34;;;6.11;100.00
20115;BME280;10218;42.874;25.320;2023-03-16T06:39:39;96545.44;;;5.92;100.00
20115;BME280;10218;42.874;25.320;2023-03-16T06:42:06;96551.97;;;5.80;100.00
20115;BME280;10218;42.874;25.320;2023-03-16T06:44:33;96554.09;;;6.02;100.00
20115;BME280;10218;42.874;25.320;2023-03-16T06:47:01;96559.22;;;6.29;100.00
20115;BME280;10218;42.874;25.320;2023-03-16T06:49:29;96566.47;;;6.27;100.00
20115;BME280;10218;42.874;25.320;2023-03-16T06:51:56;96570.50;;;6.39;100.00
20115;BME280;10218;42.874;25.320;2023-03-16T06:54:24;96569.75;;;6.21;100.00
20115;BME280;10218;42.874;25.320;2023-03-16T06:56:52;96568.69;;;5.98;100.00
20115;BME280;10218;42.874;25.320;2023-03-16T06:59:20;96582.81;;;6.15;100.00
20115;BME280;10218;42.874;25.320;2023-03-16T07:01:47;96582.53;;;6.18;100.00
20115;BME280;10218;42.874;25.320;2023-03-16T07:04:16;96579.94;;;6.00;100.00
20115;BME280;10218;42.874;25.320;2023-03-16T07:06:43;96588.78;;;6.09;100.00
20115;BME280;10218;42.874;25.320;2023-03-16T07:09:10;96590.50;;;5.92;100.00
20115;BME280;10218;42.874;25.320;2023-03-16T07:11:38;96593.50;;;5.89;100.00
20115;BME280;10218;42.874;25.320;2023-03-16T07:14:06;96598.38;;;6.43;100.00
20115;BME280;10218;42.874;25.320;2023-03-16T07:16:33;96593.59;;;6.13;100.00
20115;BME280;10218;42.874;25.320;2023-03-16T07:19:01;96608.31;;;5.82;100.00
20115;BME280;10218;42.874;25.320;2023-03-16T07:21:28;96602.59;;;5.94;100.00
20115;BME280;10218;42.874;25.320;2023-03-16T07:23:55;96593.87;;;6.02;100.00
20115;BME280;10218;42.874;25.320;2023-03-16T07:26:22;96606.47;;;6.34;100.00
20115;BME280;10218;42.874;25.320;2023-03-16T07:28:50;96612.22;;;5.95;100.00
20115;BME280;10218;42.874;25.320;2023-03-16T07:31:18;96612.16;;;6.47;100.00
20115;BME280;10218;42.874;25.320;2023-03-16T07:33:45;96619.75;;;6.34;100.00
20115;BME280;10218;42.874;25.320;2023-03-16T07:36:12;96611.59;;;6.77;100.00
20115;BME280;10218;42.874;25.320;2023-03-16T07:38:40;96617.44;;;6.39;100.00
20115;BME280;10218;42.874;25.320;2023-03-16T07:41:09;96615.97;;;6.44;100.00
20115;BME280;10218;42.874;25.320;2023-03-16T07:43:36;96616.59;;;6.38;100.00
20115;BME280;10218;42.874;25.320;2023-03-16T07:46:03;96624.00;;;6.69;100.00
20115;BME280;10218;42.874;25.320;2023-03-16T07:48:31;96622.69;;;6.65;100.00
20115;BME280;10218;42.874;25.320;2023-03-16T07:50:58;96619.28;;;6.47;100.00
20115;BME280;10218;42.874;25.320;2023-03-16T07:53:26;96627.50;;;6.01;100.00
20115;BME280;10218;42.874;25.320;2023-03-16T07:55:55;96631.94;;;5.93;100.00
20115;BME280;10218;42.874;25.320;2023-03-16T07:58:22;96634.00;;;6.07;100.00
20115;BME280;10218;42.874;25.320;2023-03-16T08:00:49;96628.00;;;6.31;100.00
20115;BME280;10218;42.874;25.320;2023-03-16T08:03:18;96655.84;;;6.27;100.00
20115;BME280;10218;42.874;25.320;2023-03-16T08:05:45;96644.09;;;6.29;100.00
20115;BME280;10218;42.874;25.320;2023-03-16T08:08:12;96654.72;;;6.37;100.00
20115;BME280;10218;42.874;25.320;2023-03-16T08:10:42;96651.22;;;6.03;100.00
20115;BME280;10218;42.874;25.320;2023-03-16T08:13:09;96651.09;;;6.38;100.00
20115;BME280;10218;42.874;25.320;2023-03-16T08:15:39;96656.91;;;6.08;100.00
20115;BME280;10218;42.874;25.320;2023-03-16T08:18:06;96650.88;;;5.98;100.00
20115;BME280;10218;42.874;25.320;2023-03-16T08:20:34;96668.84;;;6.12;100.00
20115;BME280;10218;42.874;25.320;2023-03-16T08:23:01;96671.00;;;6.09;100.00
20115;BME280;10218;42.874;25.320;2023-03-16T08:25:28;96669.66;;;6.38;100.00
20115;BME280;10218;42.874;25.320;2023-03-16T08:27:55;96667.50;;;6.08;100.00
20115;BME280;10218;42.874;25.320;2023-03-16T08:30:24;96677.87;;;6.01;100.00
20115;BME280;10218;42.874;25.320;2023-03-16T08:32:54;96674.53;;;6.25;100.00
20115;BME280;10218;42.874;25.320;2023-03-16T08:35:23;96669.47;;;6.06;100.00
20115;BME280;10218;42.874;25.320;2023-03-16T08:37:50;96682.62;;;5.54;100.00
20115;BME280;10218;42.874;25.320;2023-03-16T08:40:17;96688.16;;;6.05;100.00
20115;BME280;10218;42.874;25.320;2023-03-16T08:42:46;96682.41;;;5.66;100.00
20115;BME280;10218;42.874;25.320;2023-03-16T08:45:16;96682.59;;;5.90;100.00
20115;BME280;10218;42.874;25.320;2023-03-16T08:47:43;96698.84;;;5.87;100.00
20115;BME280;10218;42.874;25.320;2023-03-16T08:50:11;96698.59;;;5.63;100.00
20115;BME280;10218;42.874;25.320;2023-03-16T08:52:38;96695.19;;;5.70;100.00
20115;BME280;10218;42.874;25.320;2023-03-16T08:55:07;96693.41;;;6.14;100.00
20115;BME280;10218;42.874;25.320;2023-03-16T08:57:36;96692.56;;;6.39;100.00
20115;BME280;10218;42.874;25.320;2023-03-16T09:00:05;96697.84;;;5.88;100.00
20115;BME280;10218;42.874;25.320;2023-03-16T09:02:42;96699.34;;;5.55;100.00
20115;BME280;10218;42.874;25.320;2023-03-16T09:05:11;96706.19;;;5.93;100.00
20115;BME280;10218;42.874;25.320;2023-03-16T09:07:39;96703.34;;;5.94;100.00
20115;BME280;10218;42.874;25.320;2023-03-16T09:10:07;96686.97;;;6.25;100.00
20115;BME280;10218;42.874;25.320;2023-03-16T09:12:35;96707.09;;;6.10;100.00
20115;BME280;10218;42.874;25.320;2023-03-16T09:15:04;96704.25;;;6.03;100.00
20115;BME280;10218;42.874;25.320;2023-03-16T09:17:31;96715.97;;;6.18;100.00
20115;BME280;10218;42.874;25.320;2023-03-16T09:20:01;96716.91;;;6.09;100.00
20115;BME280;10218;42.874;25.320;2023-03-16T09:22:45;96715.59;;;6.73;100.00
20115;BME280;10218;42.874;25.320;2023-03-16T09:25:12;96717.56;;;6.37;100.00
20115;BME280;10218;42.874;25.320;2023-03-16T09:27:40;96725.72;;;5.56;100.00
20115;BME280;10218;42.874;25.320;2023-03-16T09:30:08;96720.94;;;5.95;100.00
20115;BME280;10218;42.874;25.320;2023-03-16T09:32:35;96734.03;;;5.62;100.00
20115;BME280;10218;42.874;25.320;2023-03-16T09:35:04;96738.34;;;5.80;100.00
20115;BME280;10218;42.874;25.320;2023-03-16T09:37:33;96738.59;;;5.87;100.00
20115;BME280;10218;42.874;25.320;2023-03-16T09:40:01;96739.34;;;5.97;100.00
20115;BME280;10218;42.874;25.320;2023-03-16T09:42:44;96739.44;;;5.87;100.00
20115;BME280;10218;42.874;25.320;2023-03-16T09:48:03;96746.84;;;5.84;100.00
20115;BME280;10218;42.874;25.320;2023-03-16T09:50:34;96749.62;;;6.00;100.00
20115;BME280;10218;42.874;25.320;2023-03-16T09:53:22;96757.59;;;6.00;100.00
20115;BME280;10218;42.874;25.320;2023-03-16T09:55:59;96761.34;;;5.44;100.00
20115;BME280;10218;42.874;25.320;2023-03-16T09:58:28;96762.28;;;6.06;100.00
20115;BME280;10218;42.874;25.320;2023-03-16T10:01:42;96763.78;;;5.55;100.00
20115;BME280;10218;42.874;25.320;2023-03-16T10:04:10;96768.28;;;5.90;100.00
20115;BME280;10218;42.874;25.320;2023-03-16T10:07:03;96770.22;;;5.71;100.00
20115;BME280;10218;42.874;25.320;2023-03-16T10:09:42;96776.13;;;6.18;100.00
20115;BME280;10218;42.874;25.320;2023-03-16T10:12:14;96765.06;;;5.69;100.00
20115;BME280;10218;42.874;25.320;2023-03-16T10:14:48;96782.56;;;6.15;100.00
20115;BME280;10218;42.874;25.320;2023-03-16T10:19:56;96773.56;;;6.08;100.00
20115;BME280;10218;42.874;25.320;2023-03-16T10:22:37;96761.34;;;5.27;100.00
20115;BME280;10218;42.874;25.320;2023-03-16T10:25:19;96781.56;;;5.45;100.00
20115;BME280;10218;42.874;25.320;2023-03-16T10:27:48;96781.50;;;5.73;100.00
20115;BME280;10218;42.874;25.320;2023-03-16T10:30:31;96790.13;;;5.57;100.00
20115;BME280;10218;42.874;25.320;2023-03-16T10:33:22;96796.59;;;5.72;100.00
20115;BME280;10218;42.874;25.320;2023-03-16T10:41:34;96766.47;;;5.91;100.00
20115;BME280;10218;42.874;25.320;2023-03-16T10:44:15;96801.06;;;5.89;100.00
20115;BME280;10218;42.874;25.320;2023-03-16T10:47:02;96805.06;;;5.58;100.00
20115;BME280;10218;42.874;25.320;2023-03-16T10:49:43;96800.09;;;6.08;100.00
20115;BME280;10218;42.874;25.320;2023-03-16T10:55:07;96801.44;;;5.77;100.00
20115;BME280;10218;42.874;25.320;2023-03-16T10:57:42;96797.50;;;5.63;100.00
20115;BME280;10218;42.874;25.320;2023-03-16T11:00:15;96796.00;;;5.96;100.00
20115;BME280;10218;42.874;25.320;2023-03-16T11:02:47;96794.97;;;5.62;100.00
20115;BME280;10218;42.874;25.320;2023-03-16T11:07:49;96792.69;;;5.94;100.00
20115;BME280;10218;42.874;25.320;2023-03-16T11:10:34;96793.06;;;6.25;100.00
20115;BME280;10218;42.874;25.320;2023-03-16T11:13:12;96798.38;;;6.25;100.00
20115;BME280;10218;42.874;25.320;2023-03-16T11:15:56;96792.28;;;6.24;100.00
20115;BME280;10218;42.874;25.320;2023-03-16T11:18:29;96800.81;;;5.83;100.00
20115;BME280;10218;42.874;25.320;2023-03-16T11:20:59;96799.94;;;5.92;100.00
20115;BME280;10218;42.874;25.320;2023-03-16T11:23:32;96794.53;;;5.66;100.00
20115;BME280;10218;42.874;25.320;2023-03-16T11:26:03;96797.88;;;5.68;100.00
20115;BME280;10218;42.874;25.320;2023-03-16T11:28:37;96795.84;;;5.97;100.00
20115;BME280;10218;42.874;25.320;2023-03-16T11:31:19;96794.16;;;5.79;100.00
20115;BME280;10218;42.874;25.320;2023-03-16T11:33:48;96802.66;;;6.00;100.00
20115;BME280;10218;42.874;25.320;2023-03-16T11:49:56;96801.88;;;5.72;100.00
20115;BME280;10218;42.874;25.320;2023-03-16T11:56:10;96807.53;;;5.59;100.00
20115;BME280;10218;42.874;25.320;2023-03-16T12:01:46;96809.84;;;5.72;100.00
20115;BME280;10218;42.874;25.320;2023-03-16T12:07:51;96812.84;;;5.59;100.00
20115;BME280;10218;42.874;25.320;2023-03-16T12:10:28;96811.91;;;5.96;100.00
20115;BME280;10218;42.874;25.320;2023-03-16T12:15:54;96822.06;;;6.18;100.00
20115;BME280;10218;42.874;25.320;2023-03-16T12:18:44;96813.91;;;5.94;100.00
20115;BME280;10218;42.874;25.320;2023-03-16T12:21:21;96810.28;;;5.85;100.00
20115;BME280;10218;42.874;25.320;2023-03-16T12:23:53;96822.66;;;5.49;100.00
20115;BME280;10218;42.874;25.320;2023-03-16T12:26:25;96826.25;;;5.76;100.00
20115;BME280;10218;42.874;25.320;2023-03-16T12:28:57;96831.50;;;5.68;100.00
20115;BME280;10218;42.874;25.320;2023-03-16T12:36:56;96829.25;;;5.90;100.00
20115;BME280;10218;42.874;25.320;2023-03-16T12:43:04;96841.41;;;5.66;100.00
20115;BME280;10218;42.874;25.320;2023-03-16T12:50:33;96856.00;;;5.70;100.00
20115;BME280;10218;42.874;25.320;2023-03-16T12:53:03;96845.56;;;5.68;100.00
20115;BME280;10218;42.874;25.320;2023-03-16T12:58:06;96856.69;;;5.27;100.00
20115;BME280;10218;42.874;25.320;2023-03-16T13:00:36;96851.03;;;5.39;100.00
20115;BME280;10218;42.874;25.320;2023-03-16T13:03:05;96862.03;;;5.17;100.00
20115;BME280;10218;42.874;25.320;2023-03-16T13:05:43;96867.25;;;5.81;100.00
20115;BME280;10218;42.874;25.320;2023-03-16T13:08:15;96874.22;;;5.55;100.00
20115;BME280;10218;42.874;25.320;2023-03-16T13:11:05;96862.91;;;5.35;100.00
20115;BME280;10218;42.874;25.320;2023-03-16T13:13:33;96865.44;;;5.54;100.00
20115;BME280;10218;42.874;25.320;2023-03-16T13:16:07;96860.91;;;5.92;100.00
20115;BME280;10218;42.874;25.320;2023-03-16T13:18:39;96870.69;;;5.91;100.00
20115;BME280;10218;42.874;25.320;2023-03-16T13:21:17;96869.31;;;5.60;100.00
20115;BME280;10218;42.874;25.320;2023-03-16T13:23:59;96875.97;;;5.74;100.00
20115;BME280;10218;42.874;25.320;2023-03-16T13:26:37;96880.56;;;5.72;100.00
20115;BME280;10218;42.874;25.320;2023-03-16T13:31:44;96883.56;;;6.22;100.00
20115;BME280;10218;42.874;25.320;2023-03-16T13:34:19;96883.97;;;6.27;100.00
20115;BME280;10218;42.874;25.320;2023-03-16T13:36:49;96885.22;;;5.60;100.00
20115;BME280;10218;42.874;25.320;2023-03-16T13:39:24;96888.72;;;5.60;100.00
20115;BME280;10218;42.874;25.320;2023-03-16T13:42:13;96890.97;;;5.55;100.00
20115;BME280;10218;42.874;25.320;2023-03-16T13:44:43;96896.16;;;6.37;100.00
20115;BME280;10218;42.874;25.320;2023-03-16T13:47:15;96898.81;;;6.20;100.00
20115;BME280;10218;42.874;25.320;2023-03-16T13:49:50;96891.81;;;6.01;100.00
20115;BME280;10218;42.874;25.320;2023-03-16T13:52:25;96885.00;;;6.16;100.00
20115;BME280;10218;42.874;25.320;2023-03-16T13:54:53;96901.91;;;5.70;100.00
20115;BME280;10218;42.874;25.320;2023-03-16T13:57:25;96895.16;;;6.21;100.00
20115;BME280;10218;42.874;25.320;2023-03-16T14:02:41;96902.47;;;6.19;100.00
20115;BME280;10218;42.874;25.320;2023-03-16T14:05:26;96896.59;;;6.15;100.00
20115;BME280;10218;42.874;25.320;2023-03-16T14:07:55;96912.31;;;6.44;100.00
20115;BME280;10218;42.874;25.320;2023-03-16T14:10:26;96906.53;;;6.31;100.00
20115;BME280;10218;42.874;25.320;2023-03-16T14:13:05;96912.22;;;6.54;100.00
20115;BME280;10218;42.874;25.320;2023-03-16T14:15:35;96916.78;;;6.08;100.00